Pagrindinis puslapis
METAR-TAF:

METAR-TAF

Oro uostai :

Shishmaref, Aliaska, Jungtinės Amerikos Valstijos

platuma: 66-16N, ilguma: 166-03W, Aukštis: 2 m

Dabartinis oras

Ataskaita buvo paskelbta 25 minutes, ne 04:56 UTC
Vėjas 14 kt iš Šiaurės
Temperatūra 11°C
Drėgmė 87%
Slėgis 1007 hPa
Matomumas: 14.5 km
Giedras dangus

METAR: PASH 160456Z AUTO 35014KT 9SM CLR 11/09 A2974 RMK AO2 RAB0358E39 SLP072 P0000 T01060089

Laikas: 21:21 (05:21 UTC)


TAF: trūkstamas

Orai ataskaitas ir orų prognozės (METAR, TAF).

turimą stotys yra geltonos ir raudonos taškus žemėlapyje.

Perkelti pele per norėdami pamatyti stoties vardą.

Tada spustelėkite, norėdami matyti oro stebėjimo ir prognozės.

Norėdami pakeisti žemėlapį: spustelėkite ant žalios mygtukų su juodo kryžiaus žemyn,; žalią mygtuką su brūkšneliu, jei norite nutolinti; arba žalių rodyklių gretimoms žemėlapius.


METAR-TAF: